Meath Environmental Platform

Observations for Trim Patrick St

Time AQI Temp °C Hum % Pres Pa CO μg/m³ H₂S μg/m³ NO μg/m³ NO₂ μg/m³ O₃ μg/m³ SO₂ μg/m³ PM1 μg/m³ PM2.5 μg/m³ PM10 μg/m³
Friday 28 August 2026
15:52 2 34.3 36 69,351 0 0 0.34 10.47 73.46 19.7 8.86 16.77 18.44
15:51 2 34.2 36 69,345 0 0 0.34 10.92 77.9 19.02 8.86 16.78 18.46
15:50 2 34.1 39 69,332 0 0 0.39 2.64 77.39 21.34 8.86 14.97 16.47
15:49 2 34 39 69,345 0 0 0.4 10.35 75.84 18.66 8 14.19 15.61
15:48 2 33.9 38 69,336 0 0 0.39 0 38.82 22.05 10.57 17.43 19.18
15:47 2 33.8 42 69,324 0 0 0.48 11.71 108.36 19.33 8.86 16.32 17.95
15:46 2 33.7 41 69,306 0 0 0.46 12.25 110.37 18.38 8.86 15.62 17.18
15:45 2 33.5 43 69,312 0 0 0.52 1.34 66.83 20.82 8.86 16.22 17.84
15:44 2 33.4 43 69,324 0 0 0.52 2.46 73.49 20.28 8 14.64 16.11
15:43 2 33.2 42 69,308 0 0 0.5 11.88 93.74 18.49 8 14.76 16.24
15:42 2 33.1 40 69,286 0 0 0.49 7.73 81.85 19.3 8.86 14.91 16.4
15:41 2 32.9 41 69,284 0 0 0.52 12.48 132.45 15.87 8.86 15.57 17.13
15:40 2 32.8 38 69,254 0 0 0.52 0.01 63.05 19.48 8 15.89 17.48
15:39 2 32.7 43 69,258 0 0 0.59 5.01 76.33 19.44 8.86 15.39 16.93
15:38 2 32.6 43 69,254 0 0 0.57 9.62 86.71 16.96 9.71 16.2 17.82
15:37 2 32.5 42 69,282 0 0 0.57 1.06 46.56 18.66 8.86 17.03 18.74
15:36 2 32.4 42 69,288 0 0 0.57 2.5 79.2 20.8 8 14.7 16.16
15:35 2 32.3 42 69,294 0 0 0.58 12.31 94.1 17.34 8 14.72 16.19
15:33 2 32.3 43 69,262 0 0 0.58 12.55 125.62 16.81 9.71 16.18 17.8
15:32 2 32.3 42 69,260 0 0 0.57 3.45 69.48 19.46 8 14.75 16.22